Onion Creek, California Weather observations

Data are for observation ending at time listed.
 Day   Time    Ave.   Ave.  Ave.  Vector   Max.   Stn.    Total    Solar   Ave.   Snow 
  of    of     Air    Rel.  Wind   Wind    Wind   Baro.  Precip.   Rad.    Soil   Depth
Year   Day     Temp.  Hum.  Speed  Dir.    Gust   Pres.                    Temp.       
2016   (PST)    F      %     mph   deg.    mph     mb.     in.     W/m2     F      in. 
---------------------------------------------------------------------------------------  
 243    7:40   54.2    44    1.5    32      2.5   834.7   48.40      73    59.2   999.0
 243    7:50   55.0    45    1.4    60      3.4   834.8   48.40     112    59.1   999.0
 243    8:00   56.5    44    1.0    58      3.1   834.8   48.37     113    59.0   999.0
 243    8:10   58.1    44    1.2    10      7.6   834.9   48.37     104    59.0   999.0
 243    8:20   60.9    38    1.4    34      5.1   835.0   48.37     147    58.9   999.0
 243    8:30   64.8    32    2.4   291      6.6   835.0   48.37     370    58.9   999.0
 243    8:40   66.6    28    2.8   256      8.3   835.1   48.37     514    58.9   999.0
 243    8:50   68.3    26    2.4   261      6.1   835.1   48.37     558    59.0   999.0
 243    9:00   69.1    26    2.6   294      7.3   835.0   48.37     625    59.1   999.0
 243    9:10   69.8    26    3.2   256     10.9   835.0   48.37     661    59.1   999.0
 243    9:20   70.2    25    3.8   268     10.1   835.1   48.33     689    59.2   999.0
 243    9:30   70.8    24    3.8   271     10.8   835.1   48.37     724    59.4   999.0
 243    9:40   71.2    24    4.0   269      9.3   835.1   48.37     751    59.6   999.0
 243    9:50   72.1    23    4.6   278     13.9   835.1   48.37     782    59.9   999.0
 243   10:00   72.2    22    3.5   297      8.6   835.1   48.37     815    60.2   999.0
 243   10:10   72.3    22    3.2   257      7.2   835.1   48.33     841    60.6   999.0
 243   10:20   73.9    22    2.8   270      7.5   835.1   48.37     857    61.0   999.0
 243   10:30   74.4    22    3.7   276      9.1   835.0   48.37     867    61.5   999.0
 243   10:40   74.4    21    4.2   278     12.6   835.0   48.37     878    62.0   999.0
 243   10:50   74.2    21    4.5   267     11.6   834.9   48.37     884    62.6   999.0
 243   11:00   74.2    20    4.0   268     11.2   834.9   48.37     911    63.2   999.0
 243   11:10   75.4    18    4.8   276     19.1   834.8   48.37     926    63.8   999.0
 243   11:20   75.2    18    6.5   284     13.5   834.8   48.37     936    64.5   999.0
 243   11:30   75.5    17    4.4   262     11.9   834.8   48.40     950    65.2   999.0
 243   11:40   76.4    17    3.6   263     10.6   834.7   48.40     953    65.9   999.0
 243   11:50   76.3    17    3.4   258     10.1   834.6   48.40     957    66.5   999.0
 243   12:00   76.7    17    4.1   273      9.0   834.5   48.40     963    67.1   999.0
 243   12:10   76.9    17    4.7   272     12.5   834.5   48.40     962    67.7   999.0
 243   12:20   76.3    18    4.3   261     11.6   834.5   48.40     962    68.3   999.0
 243   12:30   76.3    18    4.0   267     12.5   834.4   48.40     961    68.7   999.0
 243   12:40   76.4    18    4.4   267     14.8   834.3   48.37     956    69.2   999.0
 243   12:50   76.6    18    4.2   267     16.9   834.3   48.37     952    69.6   999.0
 243   13:00   76.2    17    6.2   266     16.1   834.2   48.37     951    70.0   999.0
 243   13:10   76.2    17    6.1   274     18.5   834.2   48.37     939    70.4   999.0
 243   13:20   76.1    17    5.8   268     15.1   834.1   48.37     925    70.8   999.0
 243   13:30   76.9    16    5.2   268     11.6   834.1   48.37     915    71.2   999.0
 243   13:40   76.8    15    5.6   265     12.6   834.0   48.37     902    71.6   999.0
 243   13:50   77.0    15    4.0   277     16.4   833.9   48.37     885    72.1   999.0
 243   14:00   77.2    15    5.7   278     15.5   833.8   48.37     864    72.5   999.0
 243   14:10   77.6    14    3.8   260      8.1   833.8   48.33     843    72.9   999.0
 243   14:20   77.9    14    3.9   277     10.7   833.7   48.37     819    73.4   999.0
 243   14:30   77.2    14    4.5   266     14.0   833.6   48.37     793    73.8   999.0
 243   14:40   77.2    14    4.6   276     13.9   833.6   48.37     762    74.2   999.0
 243   14:50   77.5    13    4.7   262     11.8   833.6   48.37     737    74.6   999.0
 243   15:00   77.3    13    5.9   279     15.5   833.6   48.29     709    74.9   999.0
 243   15:10   77.0    13    4.3   288     12.9   833.6   48.33     677    75.2   999.0
 243   15:20   77.6    13    4.3   271     13.7   833.5   48.33     647    75.4   999.0
 243   15:30   76.7    13    4.4   258     10.6   833.6   48.29     621    75.5   999.0
 243   15:40   76.6    14    3.3   260      9.1   833.5   48.33     592    75.5   999.0
 243   15:50   75.9    14    4.4   252     16.8   833.4   48.33     558    75.6   999.0
 243   16:00   74.9    16    3.1   253      9.1   833.4   48.33     381    75.5   999.0
 243   16:10   74.9    16    3.1   266      9.4   833.5   48.29      67    75.3   999.0
 243   16:20   74.1    16    3.4   273     10.5   833.4   48.29      48    75.2   999.0
 243   16:30   73.8    16    3.8   263     11.6   833.4   48.26      60    74.9   999.0
 243   16:40   74.1    16    4.1   261     11.1   833.4   48.29      52    74.8   999.0
 243   16:50   73.3    16    4.4   262      9.9   833.3   48.29      54    74.5   999.0
 243   17:00   73.0    17    3.1   265     10.4   833.3   48.33      83    74.3   999.0
 243   17:10   72.6    17    3.1   270      8.4   833.3   48.37      70    74.0   999.0
 243   17:20   72.2    17    2.5   272      6.4   833.2   48.33      59    73.8   999.0
 243   17:30   72.0    16    2.3   264      8.0   833.1   48.37      36    73.5   999.0
 243   17:40   71.6    16    2.2   249      5.7   833.0   48.33      68    73.3   999.0
 243   17:50   70.5    17    2.8   280      6.5   833.0   48.33      36    73.0   999.0
 243   18:00   69.0    19    1.8   272      5.8   833.0   48.33      21    72.8   999.0
 243   18:10   67.3    20    1.2   242      5.1   833.0   48.33      12    72.6   999.0
 243   18:20   66.0    22    0.5   114      4.6   832.9   48.33       9    72.3   999.0
 243   18:30   64.0    26    0.8    36      1.8   832.9   48.33       6    72.0   999.0
 243   18:40   62.5    27    1.1    33      2.0   832.9   48.33       3    71.7   999.0
 243   18:50   61.2    29    0.8    26      2.0   832.9   48.33       1    71.5   999.0
 243   19:00   59.7    31    1.0    22      1.7   832.9   48.33       0    71.2   999.0
 243   19:10   58.6    32    1.3    28      2.3   833.0   48.33       0    71.0   999.0
 243   19:20   58.0    33    1.5    34      2.9   833.1   48.33       0    70.7   999.0
 243   19:30   57.2    34    1.5    29      2.6   833.1   48.33       0    70.4   999.0
 243   19:40   56.7    33    1.9    46      2.6   833.1   48.33       0    70.1   999.0
 243   19:50   56.4    33    2.0    33      2.9   833.2   48.33       0    69.8   999.0
 243   20:00   56.0    33    1.8    50      3.0   833.2   48.33       0    69.5   999.0
 243   20:10   55.4    34    2.0    33      2.7   833.2   48.33       0    69.2   999.0
 243   20:20   55.0    34    1.7    39      2.5   833.3   48.33       0    69.0   999.0
 243   20:30   54.9    35    1.8    32      2.6   833.3   48.37       0    68.7   999.0
 243   20:40   54.6    35    1.6    28      2.6   833.3   48.37       0    68.4   999.0
 243   20:50   54.3    36    2.2    44      3.4   833.3   48.37       0    68.1   999.0
 243   21:00   54.3    37    1.8    43      3.2   833.2   48.37       0    67.8   999.0
 243   21:10   53.9    38    1.8    34      2.8   833.2   48.33       0    67.6   999.0
 243   21:20   53.7    39    1.8    41      3.1   833.3   48.37       0    67.3   999.0
 243   21:30   53.8    39    1.9    38      3.1   833.3   48.33       0    67.1   999.0
 243   21:40   53.6    40    1.4    28      3.1   833.3   48.37       0    66.8   999.0
 243   21:50   53.2    41    1.5    32      3.1   833.1   48.37       0    66.6   999.0
 243   22:00   53.5    40    2.0    41      3.1   833.0   48.33       0    66.4   999.0
 243   22:10   53.7    40    1.6    33      2.9   833.0   48.37       0    66.2   999.0
 243   22:20   53.8    40    1.5    29      2.5   833.0   48.33       0    65.9   999.0
 243   22:30   53.8    40    1.9    46      3.2   833.0   48.33       0    65.7   999.0
 243   22:40   53.6    40    1.7    44      2.6   833.1   48.33       0    65.5   999.0
 243   22:50   53.4    40    1.3    34      2.1   833.1   48.33       0    65.3   999.0
 243   23:00   53.0    40    1.5    27      2.3   833.0   48.33       0    65.1   999.0
 243   23:10   53.0    40    1.1    33      1.9   832.9   48.33       0    65.0   999.0
 243   23:20   53.0    39    1.2    39      2.1   832.8   48.33       0    64.8   999.0
 243   23:30   53.2    38    0.9    25      1.9   832.6   48.33       0    64.6   999.0
 243   23:40   53.4    38    0.8    36      1.9   832.7   48.37       0    64.4   999.0
 243   23:50   53.7    38    1.3    25      3.1   832.5   48.37       0    64.2   999.0
 244    0:00   54.2    37    1.1    54      2.5   832.5   48.37       0    64.1   999.0
 244    0:10   54.9    37    1.0    41      2.4   832.5   48.37       0    63.9   999.0
 244    0:20   55.0    37    0.6    15      2.6   832.5   48.37       0    63.8   999.0
 244    0:30   55.0    37    0.8    54      2.0   832.4   48.37       0    63.6   999.0
 244    0:40   55.3    37    1.4    37      2.6   832.4   48.37       0    63.5   999.0
 244    0:50   55.3    38    1.1     8      2.4   832.2   48.37       0    63.4   999.0
 244    1:00   55.2    38    1.4    68      3.4   832.1   48.37       0    63.3   999.0
 244    1:10   55.7    37    1.4    23      3.2   832.0   48.37       0    63.2   999.0
 244    1:20   55.9    38    1.0    25      2.9   831.7   48.37       0    63.1   999.0
 244    1:30   55.5    38    1.1    40      2.0   831.6   48.37       0    63.0   999.0
 244    1:40   55.6    38    1.4    30      2.7   831.8   48.37       0    62.9   999.0
 244    1:50   55.1    39    1.1    28      2.0   832.0   48.37       0    62.8   999.0
 244    2:00   54.3    40    1.6    26      2.4   832.1   48.33       0    62.7   999.0
 244    2:10   53.5    42    1.4    33      2.4   832.0   48.37       0    62.6   999.0
 244    2:20   53.2    42    1.4    23      2.5   831.9   48.37       0    62.5   999.0
 244    2:30   53.0    42    1.9    37      3.1   831.9   48.37       0    62.4   999.0
 244    2:40   53.0    42    1.7    31      2.7   831.9   48.33       0    62.3   999.0
 244    2:50   52.7    42    1.3    26      2.6   831.8   48.33       0    62.1   999.0
 244    3:00   52.3    44    1.9    31      2.8   831.8   48.37       0    62.0   999.0
 244    3:10   52.2    44    1.5    36      2.8   831.7   48.37       0    61.8   999.0
 244    3:20   52.4    44    1.5    24      2.7   831.7   48.37       0    61.7   999.0
 244    3:30   52.3    45    1.3    34      2.1   831.7   48.33       0    61.6   999.0
 244    3:40   52.4    46    1.2    25      1.8   831.6   48.37       0    61.4   999.0
 244    3:50   52.5    45    1.5    33      2.1   831.6   48.33       0    61.3   999.0
 244    4:00   52.9    45    1.3    31      2.3   831.6   48.33       0    61.2   999.0
 244    4:10   52.8    45    1.3    32      2.3   831.6   48.33       0    61.1   999.0
 244    4:20   53.0    45    1.5    33      2.1   831.6   48.33       0    61.0   999.0
 244    4:30   53.1    45    1.3    30      2.6   831.6   48.33       0    60.9   999.0
 244    4:40   53.0    46    1.4    31      1.9   831.6   48.33       0    60.8   999.0
 244    4:50   53.1    45    1.7    34      3.1   831.7   48.33       0    60.7   999.0
 244    5:00   52.9    46    1.4    18      2.3   831.7   48.33       0    60.6   999.0
 244    5:10   52.2    47    1.2    23      1.8   831.7   48.37       0    60.5   999.0
 244    5:20   51.6    48    1.4    26      2.3   831.8   48.33       0    60.5   999.0
 244    5:30   51.6    46    1.9    27      3.1   831.8   48.33       1    60.4   999.0
 244    5:40   51.4    46    1.5    33      2.9   831.8   48.37       3    60.3   999.0
 244    5:50   51.3    46    1.9    33      3.2   831.8   48.37       4    60.2   999.0
 244    6:00   51.0    47    1.5    26      2.2   831.8   48.33       5    60.0   999.0
 244    6:10   50.7    48    1.5    27      2.6   831.9   48.33       8    59.9   999.0
 244    6:20   50.6    49    1.9    28      2.7   831.9   48.33      10    59.8   999.0
 244    6:30   50.5    51    1.8    32      2.6   831.9   48.33      11    59.7   999.0
 244    6:40   50.4    54    1.6    30      2.6   831.9   48.37      20    59.6   999.0
 244    6:50   50.4    56    1.9    34      3.3   831.9   48.33      22    59.5   999.0
 244    7:00   50.7    57    1.6    31      3.0   831.9   48.33      26    59.4   999.0
 244    7:10   51.2    56    1.5    34      2.3   831.9   48.37      36    59.3   999.0
 244    7:20   52.1    54    1.7    45      3.3   831.9   48.37      29    59.2   999.0
 244    7:30   53.0    52    1.4    50      3.4   831.9   48.37      31    59.1   999.0

Return to Onion Creek graphs page.


Western Regional Climate Center,wrcc@dri.edu